sensor_id;sensor_type;location;lat;lon;timestamp;pressure;altitude;pressure_sealevel;temperature;humidity
9235;BME280;4652;42.716;23.218;2023-05-01T01:08:19;94826.69;;;7.46;100.00
9235;BME280;4652;42.716;23.218;2023-05-01T01:15:10;94815.19;;;7.30;100.00
9235;BME280;4652;42.716;23.218;2023-05-01T01:22:01;94816.25;;;6.99;100.00
9235;BME280;4652;42.716;23.218;2023-05-01T01:29:16;94839.53;;;6.93;100.00
9235;BME280;4652;42.716;23.218;2023-05-01T01:36:09;94839.28;;;7.05;100.00
9235;BME280;4652;42.716;23.218;2023-05-01T01:42:57;94843.81;;;7.04;100.00
9235;BME280;4652;42.716;23.218;2023-05-01T01:49:43;94847.31;;;7.05;100.00
9235;BME280;4652;42.716;23.218;2023-05-01T01:56:28;94848.94;;;7.21;100.00
9235;BME280;4652;42.716;23.218;2023-05-01T02:03:13;94832.34;;;7.04;100.00
9235;BME280;4652;42.716;23.218;2023-05-01T02:09:55;94786.78;;;6.59;100.00
9235;BME280;4652;42.716;23.218;2023-05-01T02:16:40;94810.31;;;6.52;100.00
9235;BME280;4652;42.716;23.218;2023-05-01T02:23:23;94801.19;;;6.53;100.00
9235;BME280;4652;42.716;23.218;2023-05-01T02:30:09;94830.38;;;6.64;100.00
9235;BME280;4652;42.716;23.218;2023-05-01T02:36:53;94812.16;;;6.51;100.00
9235;BME280;4652;42.716;23.218;2023-05-01T02:43:35;94802.00;;;6.43;100.00
9235;BME280;4652;42.716;23.218;2023-05-01T02:50:19;94845.09;;;6.62;100.00
9235;BME280;4652;42.716;23.218;2023-05-01T02:57:04;94846.13;;;6.45;100.00
9235;BME280;4652;42.716;23.218;2023-05-01T03:03:46;94843.97;;;6.42;100.00
9235;BME280;4652;42.716;23.218;2023-05-01T03:10:28;94842.41;;;6.52;100.00
9235;BME280;4652;42.716;23.218;2023-05-01T03:17:12;94838.34;;;6.49;100.00
9235;BME280;4652;42.716;23.218;2023-05-01T03:23:54;94841.31;;;6.58;100.00
9235;BME280;4652;42.716;23.218;2023-05-01T03:30:36;94861.44;;;6.65;100.00
9235;BME280;4652;42.716;23.218;2023-05-01T03:37:19;94860.13;;;6.83;100.00
9235;BME280;4652;42.716;23.218;2023-05-01T03:44:01;94858.53;;;6.92;100.00
9235;BME280;4652;42.716;23.218;2023-05-01T03:50:43;94870.34;;;7.01;100.00
9235;BME280;4652;42.716;23.218;2023-05-01T03:57:26;94868.75;;;7.15;100.00
9235;BME280;4652;42.716;23.218;2023-05-01T04:04:08;94876.25;;;7.33;100.00
9235;BME280;4652;42.716;23.218;2023-05-01T04:10:50;94889.38;;;7.55;100.00
9235;BME280;4652;42.716;23.218;2023-05-01T04:17:34;94894.47;;;7.87;100.00
9235;BME280;4652;42.716;23.218;2023-05-01T04:24:16;94899.78;;;8.17;100.00
9235;BME280;4652;42.716;23.218;2023-05-01T04:30:58;94895.44;;;8.41;100.00
9235;BME280;4652;42.716;23.218;2023-05-01T04:37:41;94912.56;;;8.60;100.00
9235;BME280;4652;42.716;23.218;2023-05-01T04:44:23;94896.09;;;9.26;100.00
9235;BME280;4652;42.716;23.218;2023-05-01T04:51:05;94892.44;;;10.18;100.00
9235;BME280;4652;42.716;23.218;2023-05-01T04:57:49;94892.97;;;11.29;100.00
9235;BME280;4652;42.716;23.218;2023-05-01T05:04:31;94873.78;;;14.16;100.00
9235;BME280;4652;42.716;23.218;2023-05-01T05:11:13;94881.94;;;15.51;87.94
9235;BME280;4652;42.716;23.218;2023-05-01T05:17:57;94879.06;;;15.73;81.23
9235;BME280;4652;42.716;23.218;2023-05-01T05:24:38;94892.66;;;15.00;90.41
9235;BME280;4652;42.716;23.218;2023-05-01T05:31:20;94905.84;;;16.35;88.08
9235;BME280;4652;42.716;23.218;2023-05-01T05:38:04;94905.84;;;17.28;68.43
9235;BME280;4652;42.716;23.218;2023-05-01T05:44:46;94893.25;;;19.28;62.15
9235;BME280;4652;42.716;23.218;2023-05-01T05:51:28;94895.47;;;19.87;60.23
9235;BME280;4652;42.716;23.218;2023-05-01T05:58:11;94901.38;;;21.31;55.32
9235;BME280;4652;42.716;23.218;2023-05-01T06:04:53;94907.06;;;21.89;54.21
9235;BME280;4652;42.716;23.218;2023-05-01T06:11:36;94905.47;;;24.64;48.41
9235;BME280;4652;42.716;23.218;2023-05-01T06:18:19;94909.13;;;26.75;46.00
9235;BME280;4652;42.716;23.218;2023-05-01T06:25:01;94909.13;;;26.75;46.00
9235;BME280;4652;42.716;23.218;2023-05-01T06:38:26;94895.59;;;34.45;nan
9235;BME280;4652;42.716;23.218;2023-05-01T06:45:08;94911.97;;;34.75;nan
9235;BME280;4652;42.716;23.218;2023-05-01T06:51:50;94911.97;;;34.75;nan
9235;BME280;4652;42.716;23.218;2023-05-01T06:58:33;94914.56;;;32.62;nan
9235;BME280;4652;42.716;23.218;2023-05-01T07:08:10;94918.16;;;33.02;34.90
9235;BME280;4652;42.716;23.218;2023-05-01T07:14:54;94907.84;;;32.79;35.29
9235;BME280;4652;42.716;23.218;2023-05-01T07:21:36;94916.41;;;32.49;34.98
9235;BME280;4652;42.716;23.218;2023-05-01T07:28:19;94915.78;;;33.20;33.71
9235;BME280;4652;42.716;23.218;2023-05-01T07:35:02;94905.56;;;28.76;38.65
9235;BME280;4652;42.716;23.218;2023-05-01T07:41:44;94913.16;;;25.58;43.54
9235;BME280;4652;42.716;23.218;2023-05-01T07:48:28;94921.09;;;23.44;48.17
9235;BME280;4652;42.716;23.218;2023-05-01T07:55:11;94920.94;;;22.15;50.84
9235;BME280;4652;42.716;23.218;2023-05-01T08:01:53;94927.44;;;21.56;52.21
9235;BME280;4652;42.716;23.218;2023-05-01T08:08:36;94920.34;;;20.93;53.56
9235;BME280;4652;42.716;23.218;2023-05-01T08:15:19;94919.00;;;21.02;53.10
9235;BME280;4652;42.716;23.218;2023-05-01T08:22:01;94917.72;;;21.28;53.66
9235;BME280;4652;42.716;23.218;2023-05-01T08:28:44;94916.09;;;21.58;51.72
9235;BME280;4652;42.716;23.218;2023-05-01T08:35:27;94909.53;;;21.12;49.92
9235;BME280;4652;42.716;23.218;2023-05-01T08:42:09;94907.81;;;20.48;52.74
9235;BME280;4652;42.716;23.218;2023-05-01T08:48:55;94912.28;;;21.62;50.61
9235;BME280;4652;42.716;23.218;2023-05-01T08:55:38;94897.41;;;22.14;48.90
9235;BME280;4652;42.716;23.218;2023-05-01T09:02:22;94891.91;;;21.13;48.70
9235;BME280;4652;42.716;23.218;2023-05-01T09:09:06;94902.59;;;20.43;51.00
9235;BME280;4652;42.716;23.218;2023-05-01T09:15:48;94899.28;;;21.09;48.31
9235;BME280;4652;42.716;23.218;2023-05-01T09:22:30;94899.97;;;21.88;48.39
9235;BME280;4652;42.716;23.218;2023-05-01T09:29:37;94902.38;;;21.23;49.93
9235;BME280;4652;42.716;23.218;2023-05-01T09:36:19;94899.44;;;21.16;49.32
9235;BME280;4652;42.716;23.218;2023-05-01T09:43:02;94906.09;;;20.72;49.49
9235;BME280;4652;42.716;23.218;2023-05-01T09:49:46;94895.94;;;20.88;51.78
9235;BME280;4652;42.716;23.218;2023-05-01T09:56:30;94891.66;;;20.43;52.05
9235;BME280;4652;42.716;23.218;2023-05-01T10:03:12;94882.09;;;20.96;52.97
9235;BME280;4652;42.716;23.218;2023-05-01T10:09:56;94886.72;;;21.39;50.86
9235;BME280;4652;42.716;23.218;2023-05-01T10:16:38;94876.44;;;20.89;53.54
9235;BME280;4652;42.716;23.218;2023-05-01T10:23:20;94877.50;;;20.85;52.12
9235;BME280;4652;42.716;23.218;2023-05-01T10:30:07;94882.09;;;20.37;54.69
9235;BME280;4652;42.716;23.218;2023-05-01T10:36:55;94886.59;;;20.73;52.22
9235;BME280;4652;42.716;23.218;2023-05-01T10:43:38;94881.94;;;20.18;52.90
9235;BME280;4652;42.716;23.218;2023-05-01T10:50:21;94877.00;;;20.24;51.25
9235;BME280;4652;42.716;23.218;2023-05-01T10:57:05;94872.22;;;21.07;48.85
9235;BME280;4652;42.716;23.218;2023-05-01T11:03:47;94874.13;;;20.91;48.04
9235;BME280;4652;42.716;23.218;2023-05-01T11:10:30;94862.50;;;21.26;48.29
9235;BME280;4652;42.716;23.218;2023-05-01T11:17:15;94866.13;;;21.14;47.71
9235;BME280;4652;42.716;23.218;2023-05-01T11:24:18;94877.31;;;21.40;48.12
9235;BME280;4652;42.716;23.218;2023-05-01T11:31:01;94859.13;;;21.32;47.69
9235;BME280;4652;42.716;23.218;2023-05-01T11:37:43;94829.34;;;21.65;48.46
9235;BME280;4652;42.716;23.218;2023-05-01T11:44:26;94847.34;;;21.47;45.99
9235;BME280;4652;42.716;23.218;2023-05-01T11:51:14;94851.72;;;21.17;45.65
9235;BME280;4652;42.716;23.218;2023-05-01T11:57:56;94827.59;;;20.76;46.64
9235;BME280;4652;42.716;23.218;2023-05-01T12:04:38;94843.91;;;21.35;46.30
9235;BME280;4652;42.716;23.218;2023-05-01T12:11:22;94854.31;;;21.95;47.13
9235;BME280;4652;42.716;23.218;2023-05-01T12:18:05;94836.13;;;21.72;48.31
9235;BME280;4652;42.716;23.218;2023-05-01T12:24:50;94849.50;;;21.73;46.25
9235;BME280;4652;42.716;23.218;2023-05-01T12:31:35;94845.44;;;20.85;48.94
9235;BME280;4652;42.716;23.218;2023-05-01T12:38:19;94852.03;;;19.98;49.70
9235;BME280;4652;42.716;23.218;2023-05-01T12:45:02;94853.13;;;19.81;48.38
9235;BME280;4652;42.716;23.218;2023-05-01T12:51:47;94849.09;;;19.51;51.45
9235;BME280;4652;42.716;23.218;2023-05-01T12:58:34;94848.84;;;19.68;49.72
9235;BME280;4652;42.716;23.218;2023-05-01T14:18:44;94872.78;;;19.10;52.45
9235;BME280;4652;42.716;23.218;2023-05-01T14:25:28;94894.50;;;19.19;52.16
9235;BME280;4652;42.716;23.218;2023-05-01T14:32:10;94899.16;;;19.06;53.69
9235;BME280;4652;42.716;23.218;2023-05-01T14:42:03;94878.44;;;18.93;53.29
9235;BME280;4652;42.716;23.218;2023-05-01T14:48:46;94882.06;;;18.97;53.82
9235;BME280;4652;42.716;23.218;2023-05-01T14:55:29;94873.22;;;19.12;52.34
9235;BME280;4652;42.716;23.218;2023-05-01T15:02:15;94882.31;;;19.04;53.35
9235;BME280;4652;42.716;23.218;2023-05-01T15:08:57;94889.59;;;19.00;52.22
9235;BME280;4652;42.716;23.218;2023-05-01T15:15:38;94885.47;;;18.82;52.46
9235;BME280;4652;42.716;23.218;2023-05-01T15:22:22;94872.06;;;18.89;52.98
9235;BME280;4652;42.716;23.218;2023-05-01T15:29:04;94881.19;;;18.93;52.22
9235;BME280;4652;42.716;23.218;2023-05-01T15:35:46;94883.84;;;18.57;52.89
9235;BME280;4652;42.716;23.218;2023-05-01T15:42:29;94880.13;;;18.73;53.65
9235;BME280;4652;42.716;23.218;2023-05-01T15:49:11;94882.84;;;18.73;53.25
9235;BME280;4652;42.716;23.218;2023-05-01T15:55:55;94869.41;;;18.56;55.01
9235;BME280;4652;42.716;23.218;2023-05-01T16:02:39;94872.53;;;18.79;54.55
9235;BME280;4652;42.716;23.218;2023-05-01T16:09:21;94871.38;;;18.68;54.04
9235;BME280;4652;42.716;23.218;2023-05-01T16:16:10;94879.06;;;18.54;54.43
9235;BME280;4652;42.716;23.218;2023-05-01T16:22:55;94859.44;;;18.40;55.22
9235;BME280;4652;42.716;23.218;2023-05-01T16:29:37;94826.59;;;17.91;54.47
9235;BME280;4652;42.716;23.218;2023-05-01T16:36:20;94779.06;;;17.47;55.64
9235;BME280;4652;42.716;23.218;2023-05-01T16:43:03;94865.78;;;17.99;54.87
9235;BME280;4652;42.716;23.218;2023-05-01T16:49:45;94898.88;;;17.68;56.84
9235;BME280;4652;42.716;23.218;2023-05-01T16:56:27;94913.81;;;17.33;57.66
9235;BME280;4652;42.716;23.218;2023-05-01T17:03:12;94920.00;;;17.13;58.19
9235;BME280;4652;42.716;23.218;2023-05-01T17:09:54;94920.72;;;17.01;58.63
9235;BME280;4652;42.716;23.218;2023-05-01T17:16:36;94910.13;;;16.70;58.89
9235;BME280;4652;42.716;23.218;2023-05-01T17:23:20;94923.41;;;16.63;59.73
9235;BME280;4652;42.716;23.218;2023-05-01T17:30:03;94931.41;;;16.51;60.44
9235;BME280;4652;42.716;23.218;2023-05-01T17:36:45;94949.66;;;16.42;60.74
9235;BME280;4652;42.716;23.218;2023-05-01T17:43:28;94944.06;;;16.21;61.46
9235;BME280;4652;42.716;23.218;2023-05-01T17:50:11;94966.59;;;16.22;61.64
9235;BME280;4652;42.716;23.218;2023-05-01T17:56:53;94968.22;;;16.23;61.88
9235;BME280;4652;42.716;23.218;2023-05-01T18:03:37;94965.34;;;16.19;61.54
9235;BME280;4652;42.716;23.218;2023-05-01T18:10:19;94962.78;;;16.23;60.46
9235;BME280;4652;42.716;23.218;2023-05-01T18:17:01;94982.75;;;16.27;61.15
9235;BME280;4652;42.716;23.218;2023-05-01T18:23:44;94983.53;;;16.19;61.47
9235;BME280;4652;42.716;23.218;2023-05-01T18:30:27;94995.22;;;16.11;61.19
9235;BME280;4652;42.716;23.218;2023-05-01T18:37:09;95009.94;;;16.01;61.79
9235;BME280;4652;42.716;23.218;2023-05-01T18:43:53;95014.88;;;15.91;62.63
9235;BME280;4652;42.716;23.218;2023-05-01T18:50:35;95029.53;;;15.72;63.67
9235;BME280;4652;42.716;23.218;2023-05-01T18:57:17;95005.66;;;15.52;64.85
9235;BME280;4652;42.716;23.218;2023-05-01T19:08:04;95036.47;;;15.48;65.47
9235;BME280;4652;42.716;23.218;2023-05-01T19:14:46;95035.75;;;15.34;65.70
9235;BME280;4652;42.716;23.218;2023-05-01T19:21:28;95045.34;;;15.40;65.94
9235;BME280;4652;42.716;23.218;2023-05-01T19:28:12;95030.75;;;15.18;66.57
9235;BME280;4652;42.716;23.218;2023-05-01T19:34:54;95054.22;;;15.23;66.72
9235;BME280;4652;42.716;23.218;2023-05-01T19:41:36;95053.88;;;15.16;67.89
9235;BME280;4652;42.716;23.218;2023-05-01T19:48:20;95061.16;;;15.07;69.71
9235;BME280;4652;42.716;23.218;2023-05-01T19:55:03;95063.91;;;14.85;71.88
9235;BME280;4652;42.716;23.218;2023-05-01T20:01:45;95056.94;;;14.70;71.67
9235;BME280;4652;42.716;23.218;2023-05-01T20:08:28;95051.31;;;14.66;70.58
9235;BME280;4652;42.716;23.218;2023-05-01T20:15:11;95053.38;;;14.61;71.22
9235;BME280;4652;42.716;23.218;2023-05-01T20:21:53;95067.16;;;14.51;72.02
9235;BME280;4652;42.716;23.218;2023-05-01T20:28:36;95068.94;;;14.55;72.10
9235;BME280;4652;42.716;23.218;2023-05-01T20:35:18;95066.38;;;14.50;73.06
9235;BME280;4652;42.716;23.218;2023-05-01T20:42:00;95073.06;;;14.53;72.26
9235;BME280;4652;42.716;23.218;2023-05-01T20:48:44;95071.50;;;14.52;72.64
9235;BME280;4652;42.716;23.218;2023-05-01T20:55:27;95075.72;;;14.44;73.97
9235;BME280;4652;42.716;23.218;2023-05-01T21:02:09;95080.16;;;14.40;74.75
9235;BME280;4652;42.716;23.218;2023-05-01T21:08:53;95056.59;;;14.27;74.99
9235;BME280;4652;42.716;23.218;2023-05-01T21:15:35;95090.50;;;14.38;76.71
9235;BME280;4652;42.716;23.218;2023-05-01T21:22:22;95093.03;;;14.21;78.43
9235;BME280;4652;42.716;23.218;2023-05-01T21:29:05;95093.63;;;14.18;82.67
9235;BME280;4652;42.716;23.218;2023-05-01T21:35:47;95101.31;;;13.62;86.29
9235;BME280;4652;42.716;23.218;2023-05-01T21:42:30;95088.34;;;12.72;91.81
9235;BME280;4652;42.716;23.218;2023-05-01T21:49:16;95119.69;;;12.17;97.42
9235;BME280;4652;42.716;23.218;2023-05-01T21:56:02;95126.25;;;11.92;100.00
9235;BME280;4652;42.716;23.218;2023-05-01T22:02:46;95136.41;;;11.53;100.00
9235;BME280;4652;42.716;23.218;2023-05-01T22:09:30;95132.28;;;11.08;100.00
9235;BME280;4652;42.716;23.218;2023-05-01T22:16:12;95161.34;;;10.82;100.00
9235;BME280;4652;42.716;23.218;2023-05-01T22:22:54;95155.59;;;10.60;100.00
9235;BME280;4652;42.716;23.218;2023-05-01T22:29:38;95151.97;;;10.41;100.00
9235;BME280;4652;42.716;23.218;2023-05-01T22:36:20;95140.50;;;10.20;100.00
9235;BME280;4652;42.716;23.218;2023-05-01T22:43:02;95122.03;;;9.98;100.00
9235;BME280;4652;42.716;23.218;2023-05-01T22:49:46;95140.41;;;9.81;100.00
9235;BME280;4652;42.716;23.218;2023-05-01T22:56:28;95145.34;;;9.59;100.00
9235;BME280;4652;42.716;23.218;2023-05-01T23:03:10;95126.28;;;9.51;100.00
9235;BME280;4652;42.716;23.218;2023-05-01T23:09:54;95132.78;;;9.50;100.00
9235;BME280;4652;42.716;23.218;2023-05-01T23:16:39;95129.75;;;9.56;100.00
9235;BME280;4652;42.716;23.218;2023-05-01T23:23:22;95124.88;;;9.68;100.00
9235;BME280;4652;42.716;23.218;2023-05-01T23:30:09;95124.31;;;9.76;100.00
9235;BME280;4652;42.716;23.218;2023-05-01T23:36:52;95123.03;;;9.64;100.00
9235;BME280;4652;42.716;23.218;2023-05-01T23:43:35;95107.78;;;9.44;100.00
9235;BME280;4652;42.716;23.218;2023-05-01T23:50:20;95066.31;;;8.81;100.00
9235;BME280;4652;42.716;23.218;2023-05-01T23:57:04;95118.41;;;8.80;100.00
